Time;durP1;ratioP1;P1;durP2;ratioP2;P2;SDS_P1;SDS_P2;PMS_P1;PMS_P2;Temp;Humidity;BMP_temperature;BMP_pressure;BME280_temperature;BME280_humidity;BME280_pressure;Samples;Min_cycle;Max_cycle;Signal;HPM_P1;HPM_P2
2023/08/18 00:01:45;;;;;;;9.23;3.73;;;21.80;99.90;;;;;;5065025;28;20418;-73
2023/08/18 00:04:11;;;;;;;8.67;4.10;;;21.70;99.90;;;;;;5064252;28;20836;-73
2023/08/18 00:06:36;;;;;;;8.00;3.20;;;21.70;99.90;;;;;;5061838;28;20388;-73
2023/08/18 00:09:04;;;;;;;8.30;3.20;;;21.60;99.90;;;;;;5063947;28;20415;-73
2023/08/18 00:11:29;;;;;;;8.75;3.67;;;21.50;99.90;;;;;;5054765;28;20705;-73
2023/08/18 00:13:55;;;;;;;10.50;3.50;;;21.60;99.90;;;;;;5062146;28;20407;-73
2023/08/18 00:16:20;;;;;;;9.90;3.43;;;21.40;99.90;;;;;;5066560;28;20423;-73
2023/08/18 00:18:46;;;;;;;7.90;3.60;;;21.20;99.90;;;;;;5066616;28;20776;-73
2023/08/18 00:21:11;;;;;;;8.47;3.40;;;21.20;99.90;;;;;;5063430;28;20412;-73
2023/08/18 00:23:37;;;;;;;9.13;3.80;;;21.20;99.90;;;;;;5067609;28;20385;-73
2023/08/18 00:26:03;;;;;;;8.23;3.47;;;21.30;99.90;;;;;;5061338;28;20381;-73
2023/08/18 00:28:30;;;;;;;9.73;3.90;;;21.20;99.90;;;;;;5057094;28;21283;-73
2023/08/18 00:30:56;;;;;;;10.77;3.90;;;21.20;99.90;;;;;;5051556;28;20388;-73
2023/08/18 00:33:27;;;;;;;11.00;4.47;;;21.20;99.90;;;;;;5054924;28;20381;-73
2023/08/18 00:35:53;;;;;;;7.80;3.67;;;21.20;99.90;;;;;;5054126;28;20372;-73
2023/08/18 00:38:18;;;;;;;9.23;3.50;;;21.20;99.90;;;;;;5052522;28;20400;-73
2023/08/18 00:40:44;;;;;;;8.33;3.70;;;21.20;99.90;;;;;;5060129;28;20392;-73
2023/08/18 00:43:09;;;;;;;9.10;3.30;;;21.20;99.90;;;;;;5064108;28;20395;-73
2023/08/18 00:45:35;;;;;;;7.33;3.33;;;21.20;99.90;;;;;;5052676;28;20417;-73
2023/08/18 00:48:01;;;;;;;9.00;3.57;;;21.10;99.90;;;;;;5055665;28;20980;-73
2023/08/18 00:50:26;;;;;;;10.40;3.70;;;21.10;99.90;;;;;;5050023;28;20396;-73
2023/08/18 00:52:58;;;;;;;8.25;3.67;;;21.10;99.90;;;;;;5050316;28;20454;-73
2023/08/18 00:55:26;;;;;;;8.68;4.05;;;21.10;99.90;;;;;;5060493;28;20441;-73
2023/08/18 00:57:54;;;;;;;8.45;3.28;;;21.00;99.90;;;;;;5064308;28;20466;-73
2023/08/18 01:00:23;;;;;;;10.07;3.78;;;21.00;1.00;;;;;;5063054;28;20411;-73
2023/08/18 01:02:52;;;;;;;8.13;3.45;;;21.10;99.90;;;;;;5055654;28;20904;-73
2023/08/18 01:05:18;;;;;;;10.15;4.15;;;21.00;99.90;;;;;;5055642;28;20385;-73
2023/08/18 01:07:44;;;;;;;8.77;3.80;;;21.10;99.90;;;;;;5057282;28;20401;-73
2023/08/18 01:10:10;;;;;;;8.43;3.90;;;21.00;99.90;;;;;;5058718;28;20391;-73
2023/08/18 01:12:57;;;;;;;12.45;3.75;;;20.80;99.90;;;;;;5062128;28;20396;-73
2023/08/18 01:15:35;;;;;;;8.30;3.78;;;20.70;1.00;;;;;;5067311;28;20388;-73
2023/08/18 01:18:01;;;;;;;9.27;4.00;;;20.50;1.00;;;;;;5066544;28;20388;-73
2023/08/18 01:20:28;;;;;;;8.77;3.40;;;20.50;1.00;;;;;;5058242;28;20431;-71
2023/08/18 01:22:57;;;;;;;8.20;3.97;;;20.40;1.00;;;;;;5054084;28;20415;-71
2023/08/18 01:25:24;;;;;;;9.00;3.40;;;20.40;1.00;;;;;;5053782;28;20436;-70
2023/08/18 01:27:50;;;;;;;9.32;3.58;;;20.30;1.00;;;;;;5055748;28;20401;-70
2023/08/18 01:30:16;;;;;;;8.05;3.88;;;20.30;1.00;;;;;;5053856;28;20472;-71
2023/08/18 01:32:56;;;;;;;10.27;3.50;;;20.30;1.00;;;;;;5055845;28;20469;-71
2023/08/18 01:35:27;;;;;;;8.20;3.58;;;20.30;1.00;;;;;;5058073;28;20387;-70
2023/08/18 01:37:54;;;;;;;8.18;3.55;;;20.30;1.00;;;;;;5054256;28;20397;-70
2023/08/18 01:40:24;;;;;;;11.85;3.95;;;20.40;1.00;;;;;;5059412;28;20401;-71
2023/08/18 01:42:51;;;;;;;8.30;3.50;;;20.40;1.00;;;;;;5056962;28;20489;-72
2023/08/18 01:45:17;;;;;;;8.70;3.30;;;20.30;1.00;;;;;;5055297;28;20398;-71
2023/08/18 01:47:42;;;;;;;7.97;3.55;;;20.30;1.00;;;;;;5053453;28;20455;-71
2023/08/18 01:50:08;;;;;;;8.27;3.80;;;20.30;1.00;;;;;;5053255;28;20949;-71
2023/08/18 01:52:34;;;;;;;9.68;3.95;;;20.30;1.00;;;;;;5056342;28;20385;-71
2023/08/18 01:54:59;;;;;;;9.87;3.57;;;20.30;1.00;;;;;;5054897;28;20407;-71
2023/08/18 01:57:25;;;;;;;10.80;3.37;;;20.30;1.00;;;;;;5052833;28;20884;-72
2023/08/18 01:59:50;;;;;;;9.40;3.90;;;20.20;1.00;;;;;;5057700;28;20716;-71
2023/08/18 02:02:16;;;;;;;8.73;3.97;;;20.20;1.00;;;;;;5053689;28;20428;-71
2023/08/18 02:04:41;;;;;;;9.90;3.90;;;20.20;1.00;;;;;;5055082;28;20392;-71
2023/08/18 02:07:07;;;;;;;8.40;3.27;;;20.00;1.00;;;;;;5053669;28;20862;-71
2023/08/18 02:09:32;;;;;;;8.73;3.60;;;20.00;1.00;;;;;;5054149;28;20742;-71
2023/08/18 02:11:59;;;;;;;10.60;4.27;;;20.00;1.00;;;;;;5054777;28;20814;-71
2023/08/18 02:14:24;;;;;;;7.80;3.55;;;20.10;1.00;;;;;;5055272;28;20390;-71
2023/08/18 02:16:50;;;;;;;8.30;3.50;;;20.10;1.00;;;;;;5052231;28;20439;-71
2023/08/18 02:19:15;;;;;;;7.93;3.40;;;20.10;1.00;;;;;;5054734;28;20402;-71
2023/08/18 02:21:41;;;;;;;7.40;3.30;;;20.10;1.00;;;;;;5056629;28;20438;-72
2023/08/18 02:24:07;;;;;;;11.37;3.90;;;20.10;1.00;;;;;;5053835;28;20393;-72
2023/08/18 02:26:33;;;;;;;8.95;3.00;;;20.10;1.00;;;;;;5052168;28;20385;-72
2023/08/18 02:28:59;;;;;;;10.73;3.42;;;20.10;1.00;;;;;;5054454;28;20429;-72
2023/08/18 02:31:24;;;;;;;7.28;3.50;;;20.10;1.00;;;;;;5052561;28;20422;-72
2023/08/18 02:33:50;;;;;;;7.90;3.40;;;20.10;1.00;;;;;;5056503;28;20415;-72
2023/08/18 02:36:15;;;;;;;8.27;3.20;;;20.00;1.00;;;;;;5057218;28;20479;-72
2023/08/18 02:38:41;;;;;;;7.13;3.60;;;20.00;1.00;;;;;;5055232;28;20404;-72
2023/08/18 02:41:07;;;;;;;8.20;3.40;;;19.90;1.00;;;;;;5054750;28;20870;-72
2023/08/18 02:43:33;;;;;;;8.32;3.75;;;19.80;1.00;;;;;;5051828;28;20413;-72
2023/08/18 02:46:00;;;;;;;7.70;3.57;;;19.90;1.00;;;;;;5051422;28;20974;-71
2023/08/18 02:48:27;;;;;;;11.00;3.72;;;19.90;1.00;;;;;;5066545;28;20485;-71
2023/08/18 02:51:03;;;;;;;9.00;3.40;;;19.90;1.00;;;;;;5057076;28;20437;-72
2023/08/18 02:53:28;;;;;;;8.50;3.45;;;19.90;1.00;;;;;;5054021;28;20381;-71
2023/08/18 02:55:54;;;;;;;8.02;3.53;;;19.80;1.00;;;;;;5055236;28;20477;-71
2023/08/18 02:58:20;;;;;;;8.00;3.55;;;19.90;1.00;;;;;;5052249;28;20407;-71
2023/08/18 03:00:45;;;;;;;7.80;3.42;;;20.00;1.00;;;;;;5053889;28;20383;-71
2023/08/18 03:03:11;;;;;;;8.75;4.22;;;19.80;1.00;;;;;;5053339;28;20393;-71
2023/08/18 03:05:37;;;;;;;7.53;3.75;;;19.70;1.00;;;;;;5055004;28;20385;-71
2023/08/18 03:08:03;;;;;;;10.10;4.30;;;19.80;1.00;;;;;;5053836;28;20433;-71
2023/08/18 03:10:29;;;;;;;9.52;4.00;;;19.70;1.00;;;;;;5055459;28;20950;-71
2023/08/18 03:12:54;;;;;;;9.53;4.53;;;19.70;1.00;;;;;;5053975;28;20444;-71
2023/08/18 03:15:20;;;;;;;10.13;3.70;;;19.70;1.00;;;;;;5051464;28;20390;-71
2023/08/18 03:17:46;;;;;;;10.88;3.80;;;19.70;1.00;;;;;;5064335;28;20380;-71
2023/08/18 03:20:11;;;;;;;10.55;3.83;;;19.70;1.00;;;;;;5059651;28;20421;-71
2023/08/18 03:22:37;;;;;;;8.00;3.80;;;19.70;1.00;;;;;;5056312;28;20385;-72
2023/08/18 03:25:03;;;;;;;10.40;3.83;;;19.80;1.00;;;;;;5053540;28;20390;-71
2023/08/18 03:27:29;;;;;;;9.40;3.80;;;19.80;1.00;;;;;;5051065;28;20394;-71
2023/08/18 03:29:58;;;;;;;7.00;3.50;;;19.80;1.00;;;;;;5052855;28;20412;-72
2023/08/18 03:32:23;;;;;;;8.20;3.80;;;19.80;1.00;;;;;;5053700;28;20379;-71
2023/08/18 03:34:49;;;;;;;7.63;3.90;;;19.80;1.00;;;;;;5052885;28;20766;-71
2023/08/18 03:37:15;;;;;;;7.65;3.40;;;19.80;1.00;;;;;;5053055;28;20430;-71
2023/08/18 03:39:40;;;;;;;8.13;3.30;;;19.80;1.00;;;;;;5052839;28;20401;-71
2023/08/18 03:42:06;;;;;;;8.70;3.50;;;19.80;1.00;;;;;;5052043;28;20388;-71
2023/08/18 03:44:31;;;;;;;8.60;3.60;;;19.70;1.00;;;;;;5052985;28;20424;-71
2023/08/18 03:46:56;;;;;;;8.97;3.40;;;19.60;1.00;;;;;;5052894;28;20396;-72
2023/08/18 03:49:22;;;;;;;9.73;3.70;;;19.50;1.00;;;;;;5055641;28;20431;-71
2023/08/18 03:51:48;;;;;;;8.87;3.70;;;19.50;1.00;;;;;;5052217;28;20408;-72
2023/08/18 03:54:13;;;;;;;8.20;3.50;;;19.40;1.00;;;;;;5059683;28;20474;-71
2023/08/18 03:56:39;;;;;;;9.07;3.30;;;19.30;1.00;;;;;;5059136;28;20920;-72
2023/08/18 03:59:04;;;;;;;12.00;3.70;;;19.30;1.00;;;;;;5060995;28;20384;-71
2023/08/18 04:01:31;;;;;;;10.02;3.42;;;19.40;1.00;;;;;;5061072;28;20391;-70
2023/08/18 04:03:58;;;;;;;8.50;3.50;;;19.30;1.00;;;;;;5057764;28;20397;-71
2023/08/18 04:06:24;;;;;;;8.93;3.30;;;19.20;1.00;;;;;;5058349;28;20378;-71
2023/08/18 04:09:06;;;;;;;7.30;2.80;;;19.20;1.00;;;;;;5066145;28;20419;-71
2023/08/18 04:11:33;;;;;;;8.40;3.10;;;19.10;1.00;;;;;;5057402;28;20767;-71
2023/08/18 04:13:59;;;;;;;8.35;3.55;;;19.10;1.00;;;;;;5059658;28;20380;-71
2023/08/18 04:16:24;;;;;;;10.00;4.10;;;19.10;1.00;;;;;;5057206;28;20386;-71
2023/08/18 04:18:50;;;;;;;7.32;3.17;;;19.20;1.00;;;;;;5059552;28;20978;-71
2023/08/18 04:21:15;;;;;;;9.30;3.95;;;19.20;1.00;;;;;;5056995;28;20454;-71
2023/08/18 04:23:41;;;;;;;10.85;3.60;;;19.20;1.00;;;;;;5059138;28;20435;-71
2023/08/18 04:26:06;;;;;;;7.65;3.30;;;19.20;1.00;;;;;;5060095;28;20762;-71
2023/08/18 04:28:32;;;;;;;8.57;3.40;;;19.20;1.00;;;;;;5057472;28;20417;-71
2023/08/18 04:30:58;;;;;;;8.05;3.40;;;19.20;1.00;;;;;;5057443;28;20484;-71
2023/08/18 04:33:24;;;;;;;8.52;3.47;;;19.20;1.00;;;;;;5056941;28;20750;-71
2023/08/18 04:35:49;;;;;;;10.00;4.00;;;19.10;1.00;;;;;;5058662;28;20403;-71
2023/08/18 04:38:16;;;;;;;8.63;3.40;;;19.20;1.00;;;;;;5054936;28;20393;-72
2023/08/18 04:40:42;;;;;;;9.05;3.80;;;19.20;1.00;;;;;;5057129;28;20426;-71
2023/08/18 04:43:07;;;;;;;7.80;3.10;;;19.20;1.00;;;;;;5059075;28;20917;-71
2023/08/18 04:45:34;;;;;;;9.80;3.67;;;19.30;1.00;;;;;;5059024;28;20412;-71
2023/08/18 04:47:59;;;;;;;8.40;3.20;;;19.40;1.00;;;;;;5058248;28;20807;-71
2023/08/18 04:50:25;;;;;;;8.30;3.60;;;19.40;1.00;;;;;;5056189;28;20397;-71
2023/08/18 04:52:50;;;;;;;7.53;3.23;;;19.40;1.00;;;;;;5056704;28;20404;-71
2023/08/18 04:55:16;;;;;;;8.30;3.67;;;19.40;1.00;;;;;;5057962;28;20391;-71
2023/08/18 04:57:41;;;;;;;9.20;3.20;;;19.50;1.00;;;;;;5058337;28;20387;-71
2023/08/18 05:00:09;;;;;;;7.93;3.70;;;19.40;1.00;;;;;;5056665;28;20742;-72
2023/08/18 05:02:34;;;;;;;7.83;3.20;;;19.50;1.00;;;;;;5055525;28;20382;-71
2023/08/18 05:05:00;;;;;;;9.23;4.00;;;19.70;1.00;;;;;;5056664;28;20397;-71
2023/08/18 05:07:26;;;;;;;9.45;3.60;;;19.90;1.00;;;;;;5056510;28;20385;-71
2023/08/18 05:09:52;;;;;;;8.23;3.70;;;20.10;99.90;;;;;;5060487;28;20949;-71
2023/08/18 05:12:17;;;;;;;9.27;3.30;;;20.20;99.90;;;;;;5064512;28;20434;-71
2023/08/18 05:14:43;;;;;;;9.52;3.08;;;20.40;99.90;;;;;;5057534;28;20498;-71
2023/08/18 05:17:08;;;;;;;8.52;3.58;;;20.50;99.90;;;;;;5053941;28;20493;-75
2023/08/18 05:19:34;;;;;;;10.70;3.80;;;20.50;99.90;;;;;;5068694;28;20399;-75
2023/08/18 05:22:00;;;;;;;9.30;4.10;;;20.60;99.90;;;;;;5068082;28;20405;-75
2023/08/18 05:24:25;;;;;;;9.30;4.47;;;20.80;99.90;;;;;;5064120;28;20436;-75
2023/08/18 05:26:51;;;;;;;9.27;3.67;;;21.00;93.60;;;;;;5048164;28;20441;-75
2023/08/18 05:29:16;;;;;;;10.53;3.47;;;21.00;1.00;;;;;;5049150;28;20409;-75
2023/08/18 05:31:45;;;;;;;9.70;3.90;;;21.20;1.00;;;;;;5048550;28;20734;-75
2023/08/18 05:34:10;;;;;;;8.63;4.20;;;21.60;99.90;;;;;;5049531;28;20438;-75
2023/08/18 05:36:36;;;;;;;10.10;3.63;;;22.20;27.10;;;;;;5068039;28;20392;-76
2023/08/18 05:39:02;;;;;;;9.50;3.70;;;22.90;1.00;;;;;;5047732;28;20404;-75
2023/08/18 05:41:28;;;;;;;9.43;3.55;;;23.70;99.90;;;;;;5059223;28;20500;-76
2023/08/18 05:43:53;;;;;;;7.70;3.28;;;24.20;1.00;;;;;;5047895;28;20988;-76
2023/08/18 05:46:19;;;;;;;10.27;4.50;;;24.50;99.90;;;;;;5048436;28;20918;-76
2023/08/18 05:48:44;;;;;;;10.20;3.47;;;24.60;99.90;;;;;;5048471;28;20424;-76
2023/08/18 05:51:10;;;;;;;8.05;3.30;;;25.30;99.90;;;;;;5065276;28;20404;-76
2023/08/18 05:53:36;;;;;;;8.65;3.60;;;26.10;30.30;;;;;;5047937;28;20401;-76
2023/08/18 05:56:02;;;;;;;10.60;3.90;;;26.80;1.00;;;;;;5047879;28;20436;-76
2023/08/18 05:58:28;;;;;;;9.97;3.60;;;27.50;1.00;;;;;;5059692;28;20413;-76
2023/08/18 06:00:54;;;;;;;11.03;4.10;;;27.80;1.00;;;;;;5051601;28;20412;-76
2023/08/18 06:03:22;;;;;;;10.00;4.20;;;28.30;1.00;;;;;;5061405;28;20416;-76
2023/08/18 06:05:48;;;;;;;9.60;3.47;;;28.70;1.00;;;;;;5054182;28;20401;-76
2023/08/18 06:08:14;;;;;;;7.70;3.37;;;28.60;1.00;;;;;;5059816;28;20420;-76
2023/08/18 06:10:40;;;;;;;8.40;3.80;;;28.50;1.00;;;;;;5050876;28;20400;-76
2023/08/18 06:13:06;;;;;;;7.47;3.50;;;28.40;1.00;;;;;;5057572;28;20930;-76
2023/08/18 06:15:32;;;;;;;8.80;3.70;;;28.60;1.00;;;;;;5051612;28;20433;-77
2023/08/18 06:17:57;;;;;;;10.60;3.70;;;29.60;1.00;;;;;;5051663;28;20510;-77
2023/08/18 06:20:23;;;;;;;9.10;3.47;;;30.40;1.00;;;;;;5051110;28;20442;-77
2023/08/18 06:22:48;;;;;;;7.85;3.00;;;30.70;1.00;;;;;;5050904;28;20408;-77
2023/08/18 06:25:14;;;;;;;11.23;3.57;;;30.50;99.90;;;;;;5050780;28;20450;-77
2023/08/18 06:27:40;;;;;;;9.00;3.00;;;30.50;99.90;;;;;;5052095;28;20394;-78
2023/08/18 06:30:06;;;;;;;9.77;3.60;;;30.70;99.90;;;;;;5062943;28;20472;-77
2023/08/18 06:32:32;;;;;;;7.70;3.33;;;30.90;99.90;;;;;;5057913;28;20415;-79
2023/08/18 06:34:58;;;;;;;8.90;3.25;;;30.50;99.90;;;;;;5059191;28;20824;-74
2023/08/18 06:37:24;;;;;;;9.90;2.60;;;30.50;99.90;;;;;;5062627;28;20409;-76
2023/08/18 06:39:50;;;;;;;9.13;3.35;;;30.50;99.90;;;;;;5061127;28;20403;-76
2023/08/18 06:42:15;;;;;;;8.33;2.70;;;31.10;99.90;;;;;;5057908;28;20420;-77
2023/08/18 06:44:41;;;;;;;7.13;2.90;;;31.50;99.90;;;;;;5059433;28;20398;-75
2023/08/18 06:47:06;;;;;;;9.65;2.70;;;31.90;99.90;;;;;;5058925;28;20393;-76
2023/08/18 06:49:32;;;;;;;8.70;3.30;;;32.00;99.90;;;;;;5052551;28;20420;-76
2023/08/18 06:51:58;;;;;;;8.90;2.77;;;31.60;99.90;;;;;;5051881;28;20874;-76
2023/08/18 06:54:23;;;;;;;8.77;3.20;;;31.90;99.90;;;;;;5057895;28;20427;-76
2023/08/18 06:56:49;;;;;;;11.60;3.20;;;31.80;99.90;;;;;;5061788;28;20411;-76
2023/08/18 06:59:14;;;;;;;9.20;3.30;;;31.90;99.90;;;;;;5056173;28;20833;-75
2023/08/18 07:01:41;;;;;;;7.57;2.40;;;31.70;99.90;;;;;;5051429;28;20389;-77
2023/08/18 07:04:07;;;;;;;12.35;2.90;;;31.40;99.90;;;;;;5055113;28;20867;-77
2023/08/18 07:06:33;;;;;;;8.67;2.67;;;31.90;99.90;;;;;;5052952;28;20397;-71
2023/08/18 07:08:59;;;;;;;7.20;2.40;;;31.90;99.90;;;;;;5051615;28;20835;-72
2023/08/18 07:11:24;;;;;;;8.07;3.03;;;31.50;99.90;;;;;;5048479;28;20385;-72
2023/08/18 07:13:50;;;;;;;7.75;2.50;;;31.70;99.90;;;;;;5048705;28;20763;-72
2023/08/18 07:16:15;;;;;;;7.27;2.53;;;32.20;99.90;;;;;;5048941;28;20400;-72
2023/08/18 07:18:41;;;;;;;10.00;2.87;;;32.90;99.90;;;;;;5049066;28;20744;-72
2023/08/18 07:21:06;;;;;;;9.40;2.90;;;33.30;99.90;;;;;;5053275;28;20415;-72
2023/08/18 07:23:32;;;;;;;8.07;2.50;;;33.70;99.90;;;;;;5066235;28;20431;-72
2023/08/18 07:25:58;;;;;;;8.20;3.00;;;33.60;99.90;;;;;;5062238;28;20916;-72
2023/08/18 07:28:24;;;;;;;6.73;2.43;;;33.80;99.90;;;;;;5055160;28;20409;-72
2023/08/18 07:30:50;;;;;;;7.40;2.40;;;33.70;99.90;;;;;;5049274;28;20543;-72
2023/08/18 07:33:16;;;;;;;9.43;2.25;;;34.00;99.90;;;;;;5063716;28;20471;-72
2023/08/18 07:35:42;;;;;;;6.80;2.50;;;34.10;1.00;;;;;;5054366;28;20471;-72
2023/08/18 07:38:07;;;;;;;8.80;2.50;;;34.30;99.90;;;;;;5053871;28;20423;-72
2023/08/18 07:40:33;;;;;;;6.80;2.30;;;34.50;99.90;;;;;;5068528;28;20379;-72
2023/08/18 07:42:59;;;;;;;6.72;2.20;;;;;;;;;;5059129;28;20405;-72
2023/08/18 07:45:26;;;;;;;6.50;2.10;;;35.20;99.90;;;;;;5049539;28;20480;-72
2023/08/18 07:47:52;;;;;;;6.28;2.05;;;35.80;99.90;;;;;;5049061;28;20473;-72
2023/08/18 07:50:18;;;;;;;6.65;1.90;;;35.80;99.90;;;;;;5050685;28;21305;-73
2023/08/18 07:52:44;;;;;;;7.40;2.80;;;35.70;99.90;;;;;;5051264;28;20405;-73
2023/08/18 07:55:09;;;;;;;8.60;2.45;;;35.50;99.90;;;;;;5060005;28;20463;-72
2023/08/18 07:57:36;;;;;;;7.40;2.17;;;35.30;99.90;;;;;;5049443;28;20390;-72
2023/08/18 08:00:19;;;;;;;6.88;2.28;;;35.30;99.90;;;;;;5048752;28;20390;-72
2023/08/18 08:02:45;;;;;;;7.20;2.10;;;35.70;99.90;;;;;;5049309;28;20478;-73
2023/08/18 08:05:12;;;;;;;7.40;2.38;;;36.80;99.90;;;;;;5048530;28;20868;-72
2023/08/18 08:07:38;;;;;;;7.30;2.00;;;36.80;99.90;;;;;;5049395;28;20381;-72
2023/08/18 08:10:05;;;;;;;6.82;2.25;;;36.90;99.90;;;;;;5049379;28;20523;-72
2023/08/18 08:12:32;;;;;;;7.10;2.20;;;37.70;99.90;;;;;;5065274;28;20391;-72
2023/08/18 08:14:58;;;;;;;6.47;2.30;;;38.00;99.90;;;;;;5068657;28;20425;-73
2023/08/18 08:17:24;;;;;;;5.90;1.70;;;37.80;99.90;;;;;;5066175;28;20382;-73
2023/08/18 08:19:50;;;;;;;5.97;1.70;;;38.00;99.90;;;;;;5055417;28;20404;-73
2023/08/18 08:22:16;;;;;;;6.80;2.03;;;37.90;99.90;;;;;;5061790;28;20420;-73
2023/08/18 08:24:42;;;;;;;5.88;1.75;;;38.10;99.90;;;;;;5057889;28;20389;-73
2023/08/18 08:27:08;;;;;;;7.00;2.00;;;37.90;99.90;;;;;;5050594;28;20451;-73
2023/08/18 08:29:33;;;;;;;8.00;2.30;;;37.50;99.90;;;;;;5048770;28;20409;-73
2023/08/18 08:31:59;;;;;;;5.80;2.00;;;37.60;99.90;;;;;;5048446;28;20497;-73
2023/08/18 08:34:24;;;;;;;6.65;1.90;;;37.10;99.90;;;;;;5054017;28;20419;-73
2023/08/18 08:36:51;;;;;;;5.97;1.83;;;37.00;99.90;;;;;;5048834;28;20381;-73
2023/08/18 08:39:17;;;;;;;6.50;2.08;;;37.10;99.90;;;;;;5049151;28;20757;-73
2023/08/18 08:41:42;;;;;;;8.40;1.80;;;37.40;99.90;;;;;;5050297;28;20483;-72
2023/08/18 08:44:08;;;;;;;6.60;2.20;;;37.50;99.90;;;;;;5068176;28;20429;-73
2023/08/18 08:46:36;;;;;;;7.50;1.60;;;37.90;99.90;;;;;;5069744;28;20403;-73
2023/08/18 08:49:04;;;;;;;6.88;2.30;;;37.90;99.90;;;;;;5066104;28;20511;-72
2023/08/18 08:51:35;;;;;;;6.60;2.30;;;38.40;99.90;;;;;;5061650;28;20410;-72
2023/08/18 08:54:02;;;;;;;5.97;1.80;;;38.40;99.90;;;;;;5051748;28;20436;-73
2023/08/18 08:56:31;;;;;;;6.60;1.70;;;38.30;99.90;;;;;;5050897;28;20414;-73
2023/08/18 08:58:57;;;;;;;6.47;2.00;;;38.10;99.90;;;;;;5054165;28;20418;-73
2023/08/18 09:01:23;;;;;;;6.20;1.70;;;;;;;;;;5048676;28;20762;-73
2023/08/18 09:03:50;;;;;;;6.40;1.75;;;38.80;99.90;;;;;;5057840;28;20794;-73
2023/08/18 09:06:16;;;;;;;7.60;1.40;;;39.30;99.90;;;;;;5054403;28;20392;-73
2023/08/18 09:08:41;;;;;;;5.53;1.40;;;39.60;99.90;;;;;;5055387;28;20416;-73
2023/08/18 09:11:08;;;;;;;6.03;1.30;;;38.70;99.90;;;;;;5054645;28;20470;-73
2023/08/18 09:13:39;;;;;;;7.07;1.80;;;38.90;99.90;;;;;;5055071;28;20415;-73
2023/08/18 09:16:06;;;;;;;7.07;1.90;;;39.50;99.90;;;;;;5053939;28;20463;-73
2023/08/18 09:18:33;;;;;;;6.60;1.80;;;39.80;99.90;;;;;;5053351;28;20493;-74
2023/08/18 09:21:00;;;;;;;5.80;1.40;;;39.80;99.90;;;;;;5052703;28;20475;-73
2023/08/18 09:23:27;;;;;;;6.65;1.90;;;40.40;99.90;;;;;;5047586;28;20594;-73
2023/08/18 09:25:56;;;;;;;6.10;1.60;;;40.20;99.90;;;;;;5047435;28;20424;-73
2023/08/18 09:28:22;;;;;;;5.90;1.50;;;40.20;99.90;;;;;;5057202;28;20519;-73
2023/08/18 09:30:48;;;;;;;6.20;1.73;;;40.50;99.90;;;;;;5052711;28;20439;-73
2023/08/18 09:33:15;;;;;;;5.60;1.53;;;39.40;99.90;;;;;;5058644;28;20385;-73
2023/08/18 09:35:40;;;;;;;7.10;1.90;;;39.80;99.90;;;;;;5060519;28;20413;-73
2023/08/18 09:38:11;;;;;;;5.80;1.70;;;40.40;99.90;;;;;;5062580;28;20934;-71
2023/08/18 09:40:36;;;;;;;5.40;1.60;;;41.00;99.90;;;;;;5065766;28;20430;-71
2023/08/18 09:43:02;;;;;;;6.70;1.80;;;41.80;99.90;;;;;;5063814;28;20733;-71
2023/08/18 09:45:28;;;;;;;6.43;1.70;;;42.70;99.90;;;;;;5055651;28;20423;-72
2023/08/18 09:47:55;;;;;;;6.20;1.90;;;42.80;99.90;;;;;;5049951;28;20462;-71
2023/08/18 09:50:28;;;;;;;5.80;1.80;;;42.30;99.90;;;;;;5052503;28;20472;-71
2023/08/18 09:52:56;;;;;;;6.90;2.00;;;42.20;99.90;;;;;;5069251;28;20972;-72
2023/08/18 09:55:46;;;;;;;6.83;1.97;;;42.40;99.90;;;;;;5062719;28;20392;-72
2023/08/18 09:58:24;;;;;;;7.80;1.70;;;42.10;99.90;;;;;;5063515;28;20393;-71
2023/08/18 10:00:56;;;;;;;7.45;2.00;;;42.00;99.90;;;;;;5049623;28;20396;-72
2023/08/18 10:03:26;;;;;;;6.78;1.90;;;42.10;99.90;;;;;;5050993;28;20484;-71
2023/08/18 10:05:52;;;;;;;6.72;1.70;;;42.30;99.90;;;;;;5051018;28;20534;-71
2023/08/18 10:08:19;;;;;;;6.00;1.60;;;42.40;99.90;;;;;;5049588;28;20443;-71
2023/08/18 10:10:45;;;;;;;6.45;1.90;;;41.90;99.90;;;;;;5054386;28;20413;-72
2023/08/18 10:13:13;;;;;;;6.00;1.60;;;42.00;99.90;;;;;;5059759;28;20768;-72
2023/08/18 10:15:39;;;;;;;6.50;1.70;;;42.40;99.90;;;;;;5051682;28;20416;-72
2023/08/18 10:18:09;;;;;;;7.45;1.80;;;42.30;99.90;;;;;;5055848;28;20397;-72
2023/08/18 10:20:35;;;;;;;7.40;2.10;;;42.20;99.90;;;;;;5051354;28;20417;-72
2023/08/18 10:23:02;;;;;;;6.50;1.60;;;42.10;99.90;;;;;;5064136;28;20391;-72
2023/08/18 10:25:29;;;;;;;6.60;1.60;;;42.00;99.90;;;;;;5050571;28;20378;-72
2023/08/18 10:27:56;;;;;;;6.75;1.60;;;41.80;99.90;;;;;;5059495;28;20379;-71
2023/08/18 10:30:28;;;;;;;5.63;1.83;;;42.10;99.90;;;;;;5060210;28;20416;-72
2023/08/18 10:33:06;;;;;;;6.10;1.70;;;41.80;99.90;;;;;;5061687;28;20903;-72
2023/08/18 10:35:33;;;;;;;6.67;1.40;;;41.70;99.90;;;;;;5049909;28;20408;-72
2023/08/18 10:38:03;;;;;;;6.63;2.00;;;41.40;99.90;;;;;;5049840;28;20404;-72
2023/08/18 10:40:29;;;;;;;6.07;1.80;;;41.00;99.90;;;;;;5053521;28;20940;-72
2023/08/18 10:43:14;;;;;;;7.50;1.70;;;39.80;99.90;;;;;;5058733;28;20381;-72
2023/08/18 10:45:41;;;;;;;6.10;1.90;;;38.80;99.90;;;;;;5048202;28;20397;-72
2023/08/18 10:48:08;;;;;;;6.28;2.10;;;38.00;99.90;;;;;;5053651;28;20425;-71
2023/08/18 10:50:36;;;;;;;8.37;1.87;;;36.90;99.90;;;;;;5053201;28;20401;-71
2023/08/18 10:53:04;;;;;;;7.07;1.80;;;36.50;99.90;;;;;;5051336;28;20394;-71
2023/08/18 10:55:30;;;;;;;6.60;2.20;;;36.50;99.90;;;;;;5051402;28;20436;-71
2023/08/18 10:57:55;;;;;;;7.17;1.83;;;36.30;99.90;;;;;;5055196;28;20447;-71
2023/08/18 11:00:21;;;;;;;6.40;1.60;;;36.10;99.90;;;;;;5055386;28;20806;-71
2023/08/18 11:02:50;;;;;;;7.18;1.70;;;35.90;99.90;;;;;;5049109;28;20592;-71
2023/08/18 11:05:21;;;;;;;8.10;1.80;;;35.90;99.90;;;;;;5060015;28;20393;-73
2023/08/18 11:07:49;;;;;;;5.80;1.60;;;35.70;99.90;;;;;;5048799;28;20408;-73
2023/08/18 11:10:18;;;;;;;8.70;2.30;;;35.60;99.90;;;;;;5065427;28;20407;-72
2023/08/18 11:12:45;;;;;;;7.00;1.90;;;35.80;99.90;;;;;;5048855;28;20401;-72
2023/08/18 11:15:12;;;;;;;6.57;1.77;;;35.60;99.90;;;;;;5051231;28;20418;-72
2023/08/18 11:17:37;;;;;;;6.15;1.60;;;35.50;99.90;;;;;;5049640;28;20766;-73
2023/08/18 11:20:07;;;;;;;7.45;1.80;;;35.40;99.90;;;;;;5058714;28;20430;-72
2023/08/18 11:22:36;;;;;;;5.60;1.90;;;35.30;99.90;;;;;;5049211;28;20382;-72
2023/08/18 11:25:03;;;;;;;5.63;1.80;;;35.40;99.90;;;;;;5054946;28;20878;-72
2023/08/18 11:27:30;;;;;;;6.40;1.95;;;35.60;99.90;;;;;;5054982;28;20419;-73
2023/08/18 11:29:56;;;;;;;5.95;1.70;;;35.70;99.90;;;;;;5058192;28;20426;-72
2023/08/18 11:32:22;;;;;;;5.70;1.70;;;35.60;99.90;;;;;;5055725;28;20385;-72
2023/08/18 11:34:47;;;;;;;6.60;2.03;;;35.70;99.90;;;;;;5052769;28;20771;-73
2023/08/18 11:37:13;;;;;;;7.38;1.90;;;35.80;99.90;;;;;;5052773;28;20487;-73
2023/08/18 11:39:38;;;;;;;8.10;2.33;;;36.20;99.90;;;;;;5054639;28;20391;-72
2023/08/18 11:42:04;;;;;;;6.00;1.57;;;36.10;99.90;;;;;;5058857;28;20397;-72
2023/08/18 11:44:32;;;;;;;8.27;2.33;;;36.20;99.90;;;;;;5050893;28;20496;-72
2023/08/18 11:46:58;;;;;;;5.82;1.75;;;35.80;99.90;;;;;;5048584;28;20390;-71
2023/08/18 11:49:25;;;;;;;5.95;2.00;;;35.80;99.90;;;;;;5052575;28;20421;-71
2023/08/18 11:52:03;;;;;;;6.63;1.70;;;35.90;99.90;;;;;;5053925;28;20421;-72
2023/08/18 11:54:32;;;;;;;5.90;1.80;;;35.90;99.90;;;;;;5061377;28;21004;-72
2023/08/18 11:56:58;;;;;;;7.00;1.60;;;36.00;99.90;;;;;;5048163;28;20404;-72
2023/08/18 11:59:24;;;;;;;6.85;1.80;;;36.00;99.90;;;;;;5051650;28;20464;-72
2023/08/18 12:01:58;;;;;;;6.30;1.90;;;36.00;99.90;;;;;;5051534;28;20408;-72
2023/08/18 12:04:27;;;;;;;6.78;1.80;;;36.00;99.90;;;;;;5059583;28;20401;-72
2023/08/18 12:06:53;;;;;;;7.82;1.98;;;35.90;99.90;;;;;;5061298;28;20390;-72
2023/08/18 12:09:20;;;;;;;6.90;2.08;;;35.80;99.90;;;;;;5054187;28;20469;-72
2023/08/18 12:11:45;;;;;;;6.63;1.80;;;35.70;99.90;;;;;;5050420;28;20412;-72
2023/08/18 12:14:11;;;;;;;6.10;1.95;;;35.70;99.90;;;;;;5050793;28;20453;-72
2023/08/18 12:16:36;;;;;;;6.20;1.10;;;35.20;99.90;;;;;;5051070;28;20737;-71
2023/08/18 12:19:04;;;;;;;7.07;1.60;;;35.00;99.90;;;;;;5051487;28;20395;-71
2023/08/18 12:21:31;;;;;;;7.28;1.90;;;35.00;99.90;;;;;;5058123;28;20794;-72
2023/08/18 12:23:56;;;;;;;9.47;1.80;;;35.00;99.90;;;;;;5056460;28;20504;-72
2023/08/18 12:26:22;;;;;;;6.00;1.70;;;35.00;99.90;;;;;;5051437;28;20863;-72
2023/08/18 12:28:47;;;;;;;7.40;2.10;;;35.00;99.90;;;;;;5049633;28;21309;-72
2023/08/18 12:31:13;;;;;;;8.20;2.20;;;34.80;99.90;;;;;;5057562;28;20408;-72
2023/08/18 12:33:39;;;;;;;7.80;1.70;;;35.00;99.90;;;;;;5055235;28;20887;-72
2023/08/18 12:36:05;;;;;;;6.68;1.92;;;35.00;99.90;;;;;;5051689;28;20421;-72
2023/08/18 12:38:30;;;;;;;6.20;1.50;;;35.00;99.90;;;;;;5052721;28;20435;-72
2023/08/18 12:40:56;;;;;;;7.20;1.90;;;34.90;99.90;;;;;;5053186;28;20399;-72
2023/08/18 12:43:21;;;;;;;7.70;1.80;;;35.10;99.90;;;;;;5054172;28;20797;-72
2023/08/18 12:45:47;;;;;;;6.90;2.10;;;35.20;99.90;;;;;;5049341;28;20507;-72
2023/08/18 12:48:12;;;;;;;6.45;1.95;;;35.40;99.90;;;;;;5048396;28;20494;-72